Time;durP1;ratioP1;P1;durP2;ratioP2;P2;SDS_P1;SDS_P2;PMS_P1;PMS_P2;Temp;Humidity;BMP_temperature;BMP_pressure;BME280_temperature;BME280_humidity;BME280_pressure;Samples;Min_cycle;Max_cycle;Signal;HPM_P1;HPM_P2
2023/05/21 00:02:10;;;;;;;4.28;3.88;;;16.00;99.90;;;;;;4973210;28;20594;-78
2023/05/21 00:04:40;;;;;;;6.40;4.10;;;16.00;99.90;;;;;;4936068;28;20050;-79
2023/05/21 00:07:07;;;;;;;4.30;3.72;;;16.00;99.90;;;;;;4934190;28;20122;-78
2023/05/21 00:09:33;;;;;;;5.20;4.03;;;15.90;99.90;;;;;;4947279;28;20077;-81
2023/05/21 00:11:59;;;;;;;5.03;3.72;;;16.00;99.90;;;;;;5037854;28;20058;-80
2023/05/21 00:14:25;;;;;;;4.55;4.15;;;16.00;99.90;;;;;;5036950;28;20399;-79
2023/05/21 00:16:51;;;;;;;5.13;4.03;;;16.00;99.90;;;;;;4953459;28;20051;-78
2023/05/21 00:19:17;;;;;;;4.68;3.70;;;16.00;99.90;;;;;;4935373;28;20042;-80
2023/05/21 00:21:44;;;;;;;9.73;3.75;;;16.00;99.90;;;;;;4917389;28;20043;-81
2023/05/21 00:24:10;;;;;;;4.90;3.92;;;15.90;99.90;;;;;;4947548;28;20047;-78
2023/05/21 00:26:36;;;;;;;5.88;3.85;;;16.10;99.90;;;;;;4968753;28;20143;-79
2023/05/21 00:29:02;;;;;;;5.03;4.28;;;16.00;99.90;;;;;;4917221;28;20121;-80
2023/05/21 00:31:28;;;;;;;5.97;4.07;;;16.10;99.90;;;;;;4949292;28;20046;-79
2023/05/21 00:33:53;;;;;;;8.40;3.90;;;16.00;99.90;;;;;;4954260;28;20399;-81
2023/05/21 00:36:22;;;;;;;5.90;4.43;;;16.10;99.90;;;;;;4953777;28;20038;-79
2023/05/21 00:38:49;;;;;;;6.57;3.97;;;16.00;99.90;;;;;;4974720;28;20065;-81
2023/05/21 00:41:15;;;;;;;4.53;3.78;;;16.10;99.90;;;;;;4931717;28;20047;-81
2023/05/21 00:43:43;;;;;;;4.60;4.03;;;15.90;99.90;;;;;;4971164;28;20043;-79
2023/05/21 00:46:20;;;;;;;6.95;4.35;;;16.00;99.90;;;;;;4953915;28;20051;-79
2023/05/21 00:48:46;;;;;;;5.88;4.10;;;16.10;99.90;;;;;;4968929;28;20054;-79
2023/05/21 00:51:13;;;;;;;6.97;4.35;;;16.00;99.90;;;;;;4959260;28;20121;-80
2023/05/21 00:53:40;;;;;;;4.53;3.85;;;16.00;99.90;;;;;;4968008;28;20042;-79
2023/05/21 00:56:06;;;;;;;4.93;3.92;;;16.00;99.90;;;;;;4943056;28;20031;-80
2023/05/21 00:58:33;;;;;;;6.30;4.25;;;16.00;99.90;;;;;;4941854;28;20038;-81
2023/05/21 01:01:02;;;;;;;4.82;4.03;;;16.00;99.90;;;;;;4934397;28;20058;-78
2023/05/21 01:03:37;;;;;;;4.80;4.15;;;16.00;99.90;;;;;;4968894;28;20051;-80
2023/05/21 01:06:07;;;;;;;6.78;4.05;;;16.00;99.90;;;;;;4966505;28;20042;-79
2023/05/21 01:08:35;;;;;;;6.07;4.47;;;16.00;99.90;;;;;;4967879;28;20042;-78
2023/05/21 01:11:02;;;;;;;4.80;4.20;;;16.00;99.90;;;;;;4951604;28;20078;-78
2023/05/21 01:13:30;;;;;;;8.52;4.20;;;15.90;99.90;;;;;;4936855;28;20088;-80
2023/05/21 01:16:00;;;;;;;4.70;4.15;;;16.00;99.90;;;;;;4951481;28;20046;-77
2023/05/21 01:18:26;;;;;;;6.05;4.53;;;16.00;99.90;;;;;;4937114;28;20082;-78
2023/05/21 01:20:52;;;;;;;5.13;4.32;;;16.00;99.90;;;;;;4968935;28;20071;-77
2023/05/21 01:23:19;;;;;;;5.88;4.57;;;15.90;99.90;;;;;;4936822;28;20046;-77
2023/05/21 01:25:45;;;;;;;7.80;4.35;;;16.10;99.90;;;;;;4950624;28;20039;-78
2023/05/21 01:28:11;;;;;;;6.15;4.68;;;16.10;99.90;;;;;;4950613;28;20074;-78
2023/05/21 01:30:39;;;;;;;4.40;4.00;;;16.00;99.90;;;;;;4951100;28;20388;-78
2023/05/21 01:33:16;;;;;;;6.88;5.53;;;16.00;99.90;;;;;;4985283;28;20066;-80
2023/05/21 01:36:14;;;;;;;6.38;4.75;;;15.90;99.90;;;;;;4933979;28;20430;-79
2023/05/21 01:38:56;;;;;;;6.05;4.00;;;15.90;99.90;;;;;;4967846;28;20518;-80
2023/05/21 01:41:25;;;;;;;6.30;4.50;;;15.90;99.90;;;;;;4948173;29;20039;-80
2023/05/21 01:43:53;;;;;;;6.90;4.40;;;15.90;99.90;;;;;;4948787;28;20130;-77
2023/05/21 01:46:23;;;;;;;7.65;4.78;;;15.90;99.90;;;;;;4935717;28;20129;-78
2023/05/21 01:48:51;;;;;;;6.03;4.30;;;16.00;99.90;;;;;;4965660;28;20042;-76
2023/05/21 01:51:17;;;;;;;7.47;4.78;;;16.00;99.90;;;;;;4950810;28;20051;-78
2023/05/21 01:53:44;;;;;;;6.43;5.32;;;15.90;99.90;;;;;;4933254;29;20032;-79
2023/05/21 01:56:10;;;;;;;5.78;5.15;;;16.00;99.90;;;;;;4935144;28;20042;-78
2023/05/21 01:58:36;;;;;;;6.03;5.35;;;15.90;99.90;;;;;;4933038;28;20823;-79
2023/05/21 02:01:03;;;;;;;5.90;5.30;;;16.00;99.90;;;;;;4951301;28;20054;-80
2023/05/21 02:03:32;;;;;;;6.10;4.95;;;16.10;99.90;;;;;;5034284;28;20655;-79
2023/05/21 02:05:57;;;;;;;7.25;5.28;;;15.90;99.90;;;;;;4936421;28;20053;-79
2023/05/21 02:08:24;;;;;;;5.50;4.60;;;15.80;99.90;;;;;;4933539;28;20042;-78
2023/05/21 02:10:50;;;;;;;8.82;5.45;;;15.80;99.90;;;;;;4967602;28;20061;-80
2023/05/21 02:13:19;;;;;;;9.75;5.88;;;15.80;99.90;;;;;;4966782;28;20042;-81
2023/05/21 02:15:45;;;;;;;6.43;4.65;;;15.70;99.90;;;;;;4967448;28;20050;-77
2023/05/21 02:18:15;;;;;;;7.55;5.38;;;15.60;99.90;;;;;;4945231;28;20043;-78
2023/05/21 02:20:42;;;;;;;5.78;4.95;;;15.50;99.90;;;;;;4950194;28;20140;-78
2023/05/21 02:23:08;;;;;;;6.25;5.20;;;15.60;99.90;;;;;;4944063;28;20035;-78
2023/05/21 02:25:34;;;;;;;7.13;5.78;;;15.50;99.90;;;;;;4966323;28;20046;-77
2023/05/21 02:28:01;;;;;;;7.20;5.45;;;15.30;99.90;;;;;;4948887;28;20391;-77
2023/05/21 02:30:27;;;;;;;7.22;5.03;;;15.30;99.90;;;;;;4934201;28;20039;-81
2023/05/21 02:32:53;;;;;;;8.38;5.03;;;15.20;99.90;;;;;;4932575;28;20077;-79
2023/05/21 02:35:19;;;;;;;6.22;5.32;;;15.20;99.90;;;;;;4951616;28;20051;-78
2023/05/21 02:37:45;;;;;;;9.48;6.57;;;15.20;99.90;;;;;;4948784;28;20030;-80
2023/05/21 02:40:11;;;;;;;8.10;5.95;;;15.20;99.90;;;;;;4961993;28;20398;-79
2023/05/21 02:42:38;;;;;;;9.25;5.22;;;15.00;99.90;;;;;;4977585;28;20130;-79
2023/05/21 02:45:09;;;;;;;7.22;4.93;;;15.00;99.90;;;;;;4946400;28;20042;-79
2023/05/21 02:47:34;;;;;;;8.23;5.18;;;14.90;99.90;;;;;;4945456;28;20074;-79
2023/05/21 02:50:00;;;;;;;7.05;5.10;;;14.80;99.90;;;;;;4960222;28;20070;-79
2023/05/21 02:52:26;;;;;;;7.18;4.97;;;14.80;99.90;;;;;;4927868;28;20046;-79
2023/05/21 02:54:52;;;;;;;7.13;5.43;;;14.70;99.90;;;;;;4962030;28;20042;-78
2023/05/21 02:57:18;;;;;;;7.50;5.60;;;14.60;99.90;;;;;;4946245;28;20066;-78
2023/05/21 02:59:44;;;;;;;6.63;4.97;;;14.80;99.90;;;;;;4943277;28;20035;-77
2023/05/21 03:02:10;;;;;;;7.13;5.43;;;14.80;99.90;;;;;;4929898;28;20059;-78
2023/05/21 03:04:37;;;;;;;7.75;5.75;;;14.90;99.90;;;;;;4930186;28;20051;-78
2023/05/21 03:07:04;;;;;;;8.77;5.32;;;14.80;99.90;;;;;;4930573;28;20134;-78
2023/05/21 03:09:29;;;;;;;8.23;6.18;;;14.80;99.90;;;;;;4943759;28;20766;-79
2023/05/21 03:11:55;;;;;;;8.18;5.90;;;14.90;99.90;;;;;;4941680;28;20042;-78
2023/05/21 03:14:21;;;;;;;7.38;5.30;;;14.80;99.90;;;;;;4947612;28;20105;-79
2023/05/21 03:16:47;;;;;;;9.00;6.43;;;14.90;99.90;;;;;;4943113;28;20077;-78
2023/05/21 03:19:14;;;;;;;7.85;5.53;;;14.90;99.90;;;;;;4960493;28;20058;-78
2023/05/21 03:21:40;;;;;;;7.95;5.65;;;14.80;99.90;;;;;;4949947;28;20181;-78
2023/05/21 03:24:06;;;;;;;8.50;5.90;;;14.90;99.90;;;;;;4945501;28;20031;-79
2023/05/21 03:26:32;;;;;;;8.10;5.72;;;14.80;99.90;;;;;;4934260;28;20047;-81
2023/05/21 03:28:58;;;;;;;10.70;6.28;;;14.80;99.90;;;;;;4942912;28;20434;-78
2023/05/21 03:31:25;;;;;;;10.32;5.72;;;14.80;99.90;;;;;;4917731;28;20552;-79
2023/05/21 03:33:52;;;;;;;11.25;6.20;;;15.10;99.90;;;;;;4931300;28;20069;-78
2023/05/21 03:36:18;;;;;;;8.38;5.65;;;15.00;99.90;;;;;;4950368;28;20042;-79
2023/05/21 03:38:44;;;;;;;9.40;5.85;;;15.00;99.90;;;;;;4945832;28;20047;-80
2023/05/21 03:41:10;;;;;;;10.35;5.55;;;14.90;99.90;;;;;;5032635;28;20091;-77
2023/05/21 03:43:36;;;;;;;8.18;5.60;;;15.00;99.90;;;;;;4949235;28;20049;-78
2023/05/21 03:46:01;;;;;;;8.32;5.75;;;15.10;99.90;;;;;;4933059;28;20048;-79
2023/05/21 03:48:27;;;;;;;7.50;5.75;;;15.10;99.90;;;;;;4933251;28;20057;-78
2023/05/21 03:50:53;;;;;;;8.93;5.63;;;15.00;99.90;;;;;;4948641;28;20081;-79
2023/05/21 03:53:18;;;;;;;9.77;5.65;;;15.10;99.90;;;;;;4950377;28;20034;-76
2023/05/21 03:55:44;;;;;;;10.25;5.88;;;15.20;99.90;;;;;;4965319;28;20034;-79
2023/05/21 03:58:10;;;;;;;8.82;5.40;;;15.00;99.90;;;;;;4965471;28;20047;-77
2023/05/21 04:00:36;;;;;;;9.65;5.60;;;15.20;99.90;;;;;;4921061;28;20038;-79
2023/05/21 04:03:03;;;;;;;10.10;6.25;;;15.10;99.90;;;;;;4951808;28;20034;-77
2023/05/21 04:05:28;;;;;;;11.55;5.15;;;15.20;99.90;;;;;;4987360;28;20052;-78
2023/05/21 04:07:54;;;;;;;9.40;5.38;;;15.10;99.90;;;;;;4935889;28;20046;-78
2023/05/21 04:10:21;;;;;;;7.45;4.97;;;15.20;99.90;;;;;;4937912;28;20411;-78
2023/05/21 04:12:51;;;;;;;8.32;5.55;;;15.10;99.90;;;;;;4978820;28;20529;-79
2023/05/21 04:15:19;;;;;;;8.95;4.90;;;15.10;99.90;;;;;;5052270;28;20125;-78
2023/05/21 04:17:49;;;;;;;8.23;5.25;;;15.10;99.90;;;;;;5055669;28;20727;-79
2023/05/21 04:20:15;;;;;;;7.53;4.75;;;15.10;99.90;;;;;;4954489;28;20458;-78
2023/05/21 04:22:41;;;;;;;10.05;5.22;;;15.10;99.90;;;;;;4954119;28;20037;-80
2023/05/21 04:25:11;;;;;;;7.50;5.43;;;15.10;99.90;;;;;;4971068;28;20038;-79
2023/05/21 04:27:36;;;;;;;8.05;4.53;;;15.10;99.90;;;;;;4990365;28;20045;-80
2023/05/21 04:30:03;;;;;;;7.40;4.90;;;15.20;99.90;;;;;;4992384;28;20038;-80
2023/05/21 04:32:33;;;;;;;7.18;4.68;;;15.30;99.90;;;;;;5005160;28;20135;-80
2023/05/21 04:35:00;;;;;;;7.10;4.53;;;15.40;99.90;;;;;;4964023;28;20038;-79
2023/05/21 04:37:27;;;;;;;6.80;4.50;;;15.00;99.90;;;;;;4976156;28;20034;-79
2023/05/21 04:39:54;;;;;;;7.43;5.05;;;15.40;99.90;;;;;;4957559;28;20038;-79
2023/05/21 04:42:23;;;;;;;9.73;5.05;;;15.30;99.90;;;;;;4975059;28;20042;-77
2023/05/21 04:44:49;;;;;;;8.23;4.93;;;15.30;99.90;;;;;;4958500;28;20087;-78
2023/05/21 04:47:17;;;;;;;7.13;4.38;;;15.30;99.90;;;;;;4975503;28;20042;-78
2023/05/21 04:49:43;;;;;;;8.50;4.63;;;15.50;99.90;;;;;;4963230;28;20039;-78
2023/05/21 04:52:09;;;;;;;9.65;4.70;;;15.50;99.90;;;;;;4956727;28;20074;-79
2023/05/21 04:54:37;;;;;;;8.57;5.05;;;15.50;99.90;;;;;;4994938;28;20038;-79
2023/05/21 04:57:06;;;;;;;6.88;4.93;;;15.40;99.90;;;;;;5000948;28;20034;-78
2023/05/21 04:59:32;;;;;;;8.00;4.88;;;15.60;99.90;;;;;;4981733;28;20065;-79
2023/05/21 05:01:58;;;;;;;6.45;4.55;;;15.60;99.90;;;;;;4979965;28;20499;-79
2023/05/21 05:04:24;;;;;;;7.75;4.78;;;15.60;99.90;;;;;;4956640;28;20085;-78
2023/05/21 05:06:51;;;;;;;9.70;4.65;;;15.70;99.90;;;;;;4986488;28;20076;-81
2023/05/21 05:09:17;;;;;;;7.45;4.30;;;15.90;99.90;;;;;;4969033;28;20046;-78
2023/05/21 05:11:43;;;;;;;7.40;4.07;;;15.80;99.90;;;;;;4987133;28;20110;-84
2023/05/21 05:14:08;;;;;;;7.05;4.32;;;16.10;99.90;;;;;;4981331;28;20494;-79
2023/05/21 05:16:35;;;;;;;7.88;4.32;;;16.10;99.90;;;;;;4998838;28;20508;-81
2023/05/21 05:19:00;;;;;;;5.45;4.05;;;16.00;99.90;;;;;;5028106;28;20654;-80
2023/05/21 05:21:26;;;;;;;8.15;4.53;;;16.20;99.90;;;;;;4988397;28;20125;-80
2023/05/21 05:23:52;;;;;;;4.93;3.88;;;16.20;99.90;;;;;;4979949;28;20046;-80
2023/05/21 05:26:18;;;;;;;8.27;4.78;;;16.30;99.90;;;;;;4987958;28;20392;-81
2023/05/21 05:28:45;;;;;;;6.13;4.20;;;16.20;99.90;;;;;;4989903;28;20081;-78
2023/05/21 05:31:10;;;;;;;8.65;4.38;;;16.10;99.90;;;;;;4955569;28;20045;-77
2023/05/21 05:33:36;;;;;;;6.63;3.50;;;16.10;99.90;;;;;;4972413;28;20065;-79
2023/05/21 05:36:02;;;;;;;7.00;4.25;;;16.20;99.90;;;;;;4987209;28;20068;-81
2023/05/21 05:38:28;;;;;;;6.93;3.30;;;16.20;99.90;;;;;;4985274;28;20132;-78
2023/05/21 05:40:54;;;;;;;6.30;3.92;;;16.30;99.90;;;;;;4987974;28;20080;-78
2023/05/21 05:43:20;;;;;;;6.30;4.20;;;16.30;99.90;;;;;;4973003;28;20397;-77
2023/05/21 05:45:46;;;;;;;6.93;4.00;;;16.40;99.90;;;;;;4956698;28;20504;-78
2023/05/21 05:48:12;;;;;;;7.82;3.72;;;16.40;99.90;;;;;;4970495;28;20128;-77
2023/05/21 05:50:37;;;;;;;7.35;4.20;;;16.50;99.90;;;;;;5011509;28;20048;-78
2023/05/21 05:53:03;;;;;;;8.77;4.00;;;16.30;99.90;;;;;;4988253;28;20129;-81
2023/05/21 05:55:29;;;;;;;8.48;3.75;;;16.50;99.90;;;;;;4973983;28;20057;-83
2023/05/21 05:57:57;;;;;;;8.50;4.47;;;16.50;99.90;;;;;;4973132;28;20130;-77
2023/05/21 06:00:23;;;;;;;6.90;4.15;;;16.30;99.90;;;;;;4982442;28;20042;-82
2023/05/21 06:02:49;;;;;;;7.43;4.07;;;16.20;99.90;;;;;;5058144;28;20061;-78
2023/05/21 06:05:15;;;;;;;5.35;3.65;;;16.50;99.90;;;;;;4957141;28;20507;-80
2023/05/21 06:07:41;;;;;;;9.18;4.10;;;16.30;99.90;;;;;;5000781;28;20111;-78
2023/05/21 06:10:07;;;;;;;8.23;4.47;;;16.30;99.90;;;;;;5011130;28;20046;-79
2023/05/21 06:12:33;;;;;;;7.18;3.90;;;16.40;99.90;;;;;;4996191;28;20042;-84
2023/05/21 06:14:59;;;;;;;6.70;4.40;;;16.30;99.90;;;;;;4988392;28;20036;-78
2023/05/21 06:17:25;;;;;;;6.13;3.90;;;16.40;99.90;;;;;;4989722;28;20049;-80
2023/05/21 06:19:56;;;;;;;6.60;3.58;;;16.40;99.90;;;;;;5034681;28;20038;-80
2023/05/21 06:22:21;;;;;;;6.38;3.72;;;16.40;99.90;;;;;;4975620;28;20045;-78
2023/05/21 06:24:50;;;;;;;6.55;3.67;;;16.50;99.90;;;;;;4978021;28;20537;-78
2023/05/21 06:27:16;;;;;;;6.28;3.42;;;16.60;99.90;;;;;;4940587;28;20052;-80
2023/05/21 06:29:42;;;;;;;8.55;3.90;;;16.50;99.90;;;;;;4998305;28;20042;-79
2023/05/21 06:32:08;;;;;;;6.03;4.10;;;16.80;99.90;;;;;;4977190;28;20034;-80
2023/05/21 06:34:33;;;;;;;7.03;4.05;;;16.90;99.90;;;;;;4972164;28;20033;-80
2023/05/21 06:36:59;;;;;;;5.15;3.65;;;16.60;99.90;;;;;;4936862;28;20106;-82
2023/05/21 06:39:26;;;;;;;7.15;4.57;;;16.80;99.90;;;;;;4974437;28;20619;-78
2023/05/21 06:41:52;;;;;;;7.20;3.90;;;17.00;99.90;;;;;;4984626;28;20128;-80
2023/05/21 06:44:17;;;;;;;6.75;4.25;;;17.00;99.90;;;;;;4988975;28;20120;-81
2023/05/21 06:46:43;;;;;;;5.70;3.90;;;17.20;99.90;;;;;;4972800;28;20071;-78
2023/05/21 06:49:10;;;;;;;5.60;3.85;;;17.10;99.90;;;;;;4954575;28;20037;-80
2023/05/21 06:51:36;;;;;;;5.85;4.00;;;17.30;99.90;;;;;;4986011;28;20042;-80
2023/05/21 06:54:03;;;;;;;7.10;3.78;;;17.30;99.90;;;;;;4987163;28;20046;-78
2023/05/21 06:56:28;;;;;;;7.82;4.38;;;17.40;99.90;;;;;;4970149;28;20045;-78
2023/05/21 06:58:54;;;;;;;8.45;4.40;;;17.40;99.90;;;;;;4992648;28;20034;-81
2023/05/21 07:01:21;;;;;;;6.65;3.88;;;17.40;99.90;;;;;;4980788;28;20106;-78
2023/05/21 07:03:47;;;;;;;6.38;3.92;;;17.40;99.90;;;;;;4994977;28;20503;-81
2023/05/21 07:06:13;;;;;;;6.45;3.83;;;17.30;99.90;;;;;;4971349;28;20072;-75
2023/05/21 07:08:39;;;;;;;7.35;4.50;;;17.60;99.90;;;;;;4984354;28;20073;-76
2023/05/21 07:11:04;;;;;;;7.63;4.32;;;17.40;99.90;;;;;;4948229;28;20049;-78
2023/05/21 07:13:30;;;;;;;8.23;4.22;;;17.20;99.90;;;;;;4981272;28;20044;-76
2023/05/21 07:15:56;;;;;;;7.28;4.20;;;17.30;99.90;;;;;;4979882;28;20129;-79
2023/05/21 07:18:21;;;;;;;8.48;4.55;;;17.40;99.90;;;;;;4965258;28;20033;-82
2023/05/21 07:20:50;;;;;;;6.18;3.38;;;17.60;99.90;;;;;;4963318;28;20046;-77
2023/05/21 07:23:18;;;;;;;7.07;3.88;;;17.70;99.90;;;;;;4945515;28;20281;-78
2023/05/21 07:25:44;;;;;;;5.50;4.20;;;17.60;99.90;;;;;;5005689;28;20041;-77
2023/05/21 07:28:09;;;;;;;8.13;4.32;;;17.80;99.90;;;;;;4977144;28;20038;-81
2023/05/21 07:30:37;;;;;;;6.05;4.18;;;17.90;99.90;;;;;;4947405;28;20125;-80
2023/05/21 07:33:06;;;;;;;5.30;3.47;;;18.10;99.90;;;;;;4964558;28;20912;-79
2023/05/21 07:35:31;;;;;;;7.50;4.00;;;18.00;99.90;;;;;;4963743;28;20050;-79
2023/05/21 07:37:57;;;;;;;8.40;4.35;;;18.10;99.90;;;;;;4939674;28;20119;-79
2023/05/21 07:40:23;;;;;;;6.22;4.30;;;18.30;99.90;;;;;;4980423;28;20037;-80
2023/05/21 07:42:49;;;;;;;5.72;3.75;;;18.40;99.90;;;;;;5049850;28;20080;-80
2023/05/21 07:45:15;;;;;;;5.68;3.60;;;18.60;99.90;;;;;;4994079;28;20342;-78
2023/05/21 07:47:41;;;;;;;5.07;3.33;;;18.60;99.90;;;;;;4981877;28;20046;-81
2023/05/21 07:50:07;;;;;;;7.70;4.28;;;18.90;99.90;;;;;;4961185;28;20045;-80
2023/05/21 07:52:33;;;;;;;5.50;3.85;;;18.60;99.90;;;;;;4978087;28;20050;-79
2023/05/21 07:55:00;;;;;;;6.88;4.18;;;18.70;99.90;;;;;;4965442;28;20505;-79
2023/05/21 07:57:26;;;;;;;6.95;5.00;;;18.90;99.90;;;;;;4983408;28;20535;-83
2023/05/21 07:59:52;;;;;;;5.88;4.00;;;18.90;99.90;;;;;;5042649;28;20046;-79
2023/05/21 08:02:17;;;;;;;6.20;4.00;;;18.90;99.90;;;;;;4962622;28;20061;-77
2023/05/21 08:04:43;;;;;;;7.45;3.90;;;19.20;99.90;;;;;;5049970;28;20042;-78
2023/05/21 08:07:09;;;;;;;6.13;3.55;;;19.00;99.90;;;;;;4953083;28;20054;-77
2023/05/21 08:09:35;;;;;;;9.60;4.38;;;19.10;99.90;;;;;;4961210;28;20044;-81
2023/05/21 08:12:01;;;;;;;7.00;3.83;;;18.90;99.90;;;;;;4985292;28;20053;-77
2023/05/21 08:14:26;;;;;;;5.50;3.92;;;18.90;99.90;;;;;;4971049;28;20431;-81
2023/05/21 08:16:52;;;;;;;7.32;4.10;;;18.80;99.90;;;;;;4974260;28;20049;-79
2023/05/21 08:19:18;;;;;;;6.00;3.63;;;18.90;99.90;;;;;;4972178;28;20150;-81
2023/05/21 08:21:44;;;;;;;8.50;4.20;;;19.00;99.90;;;;;;4988398;28;20727;-76
2023/05/21 08:24:10;;;;;;;4.15;3.40;;;18.90;99.90;;;;;;4975895;28;20089;-77
2023/05/21 08:26:35;;;;;;;8.20;3.50;;;19.20;99.90;;;;;;4976599;28;20053;-78
2023/05/21 08:29:01;;;;;;;5.57;3.60;;;19.40;99.90;;;;;;5002743;28;20603;-77
2023/05/21 08:31:27;;;;;;;6.35;3.50;;;19.50;99.90;;;;;;4993074;28;20040;-80
2023/05/21 08:33:55;;;;;;;6.07;3.72;;;19.60;99.90;;;;;;4956103;28;20038;-80
2023/05/21 08:36:21;;;;;;;6.82;3.92;;;19.50;99.90;;;;;;4991564;28;20116;-82
2023/05/21 08:38:47;;;;;;;10.40;4.28;;;19.60;99.90;;;;;;4986652;28;20041;-75
2023/05/21 08:41:13;;;;;;;4.75;3.70;;;19.60;99.90;;;;;;4973423;28;20041;-74
2023/05/21 08:43:39;;;;;;;6.70;3.80;;;19.70;99.90;;;;;;4991107;28;20128;-76
2023/05/21 08:46:06;;;;;;;5.60;3.70;;;19.50;99.90;;;;;;4989697;28;20449;-78
2023/05/21 08:48:35;;;;;;;8.90;4.20;;;19.80;99.90;;;;;;4989194;28;20460;-77
2023/05/21 08:51:01;;;;;;;5.38;3.88;;;19.80;99.90;;;;;;4973589;28;20040;-75
2023/05/21 08:53:27;;;;;;;5.57;4.05;;;20.00;99.90;;;;;;4975209;28;20038;-79
2023/05/21 08:55:56;;;;;;;5.22;3.90;;;20.10;99.90;;;;;;4968605;28;20045;-75
2023/05/21 08:58:22;;;;;;;5.05;3.45;;;20.00;99.90;;;;;;4991212;28;20038;-76
2023/05/21 09:00:48;;;;;;;4.93;4.20;;;19.90;99.90;;;;;;4984415;28;20042;-78
2023/05/21 09:03:14;;;;;;;6.25;3.63;;;19.90;99.90;;;;;;4960791;28;20506;-77
2023/05/21 09:05:41;;;;;;;5.80;4.38;;;20.30;99.90;;;;;;4961255;28;20047;-79
2023/05/21 09:08:16;;;;;;;4.85;3.67;;;20.40;99.90;;;;;;4947346;28;20050;-79
2023/05/21 09:10:51;;;;;;;5.82;4.40;;;20.30;99.90;;;;;;4949438;28;20035;-81
2023/05/21 09:13:22;;;;;;;7.72;4.40;;;20.30;99.90;;;;;;4958922;28;20071;-79
2023/05/21 09:15:48;;;;;;;5.65;3.90;;;20.10;99.90;;;;;;4946129;28;20534;-78
2023/05/21 09:18:13;;;;;;;7.32;3.80;;;20.10;99.90;;;;;;4939996;28;20042;-80
2023/05/21 09:20:40;;;;;;;5.93;3.92;;;20.40;99.90;;;;;;4925980;28;20034;-78
2023/05/21 09:23:15;;;;;;;6.05;3.83;;;20.20;99.90;;;;;;4954018;28;20047;-80
2023/05/21 09:25:45;;;;;;;5.60;3.83;;;20.30;99.90;;;;;;4947061;28;20043;-78
2023/05/21 09:28:14;;;;;;;6.07;4.35;;;20.60;99.90;;;;;;4977017;28;20744;-78
2023/05/21 09:30:48;;;;;;;8.43;4.03;;;20.30;99.90;;;;;;4914133;28;20078;-78
2023/05/21 09:33:32;;;;;;;4.65;3.30;;;20.20;99.90;;;;;;4956843;28;20039;-76
2023/05/21 09:35:58;;;;;;;7.47;3.65;;;20.50;99.90;;;;;;4944640;28;20057;-79
2023/05/21 09:38:25;;;;;;;6.72;3.65;;;20.90;99.90;;;;;;4962945;28;20690;-79
2023/05/21 09:40:53;;;;;;;4.65;3.50;;;20.60;99.90;;;;;;4966384;28;20722;-80
2023/05/21 09:43:20;;;;;;;5.18;3.00;;;20.60;99.90;;;;;;4948844;28;20089;-79
2023/05/21 09:45:51;;;;;;;4.95;3.20;;;21.10;99.90;;;;;;4965842;28;20076;-78
2023/05/21 09:48:16;;;;;;;3.92;2.80;;;21.00;99.90;;;;;;4951260;28;20039;-78
2023/05/21 09:50:42;;;;;;;5.03;3.00;;;20.90;99.90;;;;;;4932468;28;20043;-78
2023/05/21 09:53:13;;;;;;;6.63;3.17;;;21.00;99.90;;;;;;4965932;28;20070;-77
2023/05/21 09:55:42;;;;;;;6.00;3.22;;;20.50;99.90;;;;;;4948836;28;20088;-78
2023/05/21 09:58:09;;;;;;;6.47;3.67;;;20.40;99.90;;;;;;4931171;28;20051;-82
2023/05/21 10:00:35;;;;;;;5.88;3.40;;;20.50;99.90;;;;;;4955344;28;20050;-77
2023/05/21 10:03:06;;;;;;;5.50;3.33;;;20.40;99.90;;;;;;4948195;28;20079;-78
2023/05/21 10:05:32;;;;;;;6.20;3.40;;;20.30;99.90;;;;;;4967424;28;20104;-81
2023/05/21 10:08:03;;;;;;;5.10;3.35;;;20.50;99.90;;;;;;4967057;28;20356;-81
2023/05/21 10:10:30;;;;;;;5.28;3.10;;;20.60;99.90;;;;;;4932503;28;20051;-76
2023/05/21 10:13:07;;;;;;;5.63;3.58;;;21.00;99.90;;;;;;4962189;28;20050;-79
2023/05/21 10:15:56;;;;;;;8.35;3.60;;;21.30;99.90;;;;;;4950699;28;20034;-79
2023/05/21 10:18:23;;;;;;;6.97;3.30;;;20.60;99.90;;;;;;4951130;28;20043;-79
2023/05/21 10:20:50;;;;;;;5.65;3.60;;;21.00;99.90;;;;;;4935265;28;20047;-78
2023/05/21 10:23:17;;;;;;;5.25;3.25;;;21.10;99.90;;;;;;4951223;28;20576;-83
2023/05/21 10:25:44;;;;;;;7.38;3.40;;;21.40;99.90;;;;;;4966320;28;20042;-79
2023/05/21 10:28:10;;;;;;;5.90;3.45;;;22.00;99.90;;;;;;4965008;28;20043;-81
2023/05/21 10:30:37;;;;;;;5.85;3.80;;;21.50;99.90;;;;;;4948411;28;20050;-79
2023/05/21 10:33:03;;;;;;;6.10;3.50;;;21.40;99.90;;;;;;4933289;28;20039;-76
2023/05/21 10:35:31;;;;;;;5.18;3.47;;;21.70;99.90;;;;;;4953823;28;20062;-75
2023/05/21 10:37:57;;;;;;;4.75;3.70;;;21.80;99.90;;;;;;4945042;28;20211;-76
2023/05/21 10:40:23;;;;;;;7.47;3.63;;;21.80;99.90;;;;;;4944041;28;20387;-78
2023/05/21 10:43:09;;;;;;;7.43;3.78;;;22.10;99.90;;;;;;4913848;28;20047;-77
2023/05/21 10:45:53;;;;;;;5.60;4.03;;;22.40;99.90;;;;;;4954131;28;20047;-77
2023/05/21 10:49:03;;;;;;;6.15;3.63;;;22.10;99.90;;;;;;4943944;28;20042;-76
2023/05/21 10:51:41;;;;;;;5.35;3.50;;;22.40;99.90;;;;;;4964699;28;20078;-77
2023/05/21 10:54:47;;;;;;;6.22;3.70;;;22.70;99.90;;;;;;4945329;28;20050;-79
2023/05/21 10:57:25;;;;;;;5.07;3.35;;;22.70;99.90;;;;;;4975732;28;20526;-78
2023/05/21 10:59:51;;;;;;;5.30;3.83;;;23.00;99.90;;;;;;4961422;28;20042;-81
2023/05/21 11:02:19;;;;;;;6.18;3.65;;;22.20;99.90;;;;;;4966414;28;20059;-80
2023/05/21 11:04:47;;;;;;;6.05;4.20;;;22.00;99.90;;;;;;4975639;28;20401;-79
2023/05/21 11:07:14;;;;;;;6.32;4.53;;;22.10;99.90;;;;;;4944344;28;20055;-78
2023/05/21 11:09:40;;;;;;;4.50;3.95;;;22.70;99.90;;;;;;4940188;28;20039;-77
2023/05/21 11:12:08;;;;;;;9.70;4.90;;;22.70;99.90;;;;;;4945656;28;20043;-82
2023/05/21 11:14:39;;;;;;;8.90;4.93;;;21.70;99.90;;;;;;4934115;28;20456;-79
2023/05/21 11:17:08;;;;;;;6.50;4.47;;;21.50;99.90;;;;;;4958785;28;20085;-76
2023/05/21 11:19:35;;;;;;;8.07;4.22;;;22.30;99.90;;;;;;4957303;28;20038;-78
2023/05/21 11:22:06;;;;;;;7.68;4.90;;;22.30;99.90;;;;;;4953665;28;20055;-79
2023/05/21 11:24:32;;;;;;;5.95;4.57;;;22.30;99.90;;;;;;4948251;28;20092;-76
2023/05/21 11:27:01;;;;;;;5.07;4.57;;;22.70;99.90;;;;;;4941750;28;20095;-79
2023/05/21 11:29:43;;;;;;;5.82;5.00;;;22.90;99.90;;;;;;4941377;28;20051;-78
2023/05/21 11:32:11;;;;;;;7.07;5.28;;;23.00;99.90;;;;;;5005521;28;20366;-80
2023/05/21 11:34:45;;;;;;;6.88;4.90;;;22.50;99.90;;;;;;4975513;28;20157;-81
2023/05/21 11:37:17;;;;;;;6.88;5.45;;;23.00;99.90;;;;;;4939841;28;20031;-78
2023/05/21 11:39:43;;;;;;;7.15;5.40;;;22.60;99.90;;;;;;4962194;28;20043;-78
2023/05/21 11:42:09;;;;;;;6.25;5.22;;;22.70;99.90;;;;;;4944248;28;20391;-79
2023/05/21 11:44:43;;;;;;;7.68;5.40;;;22.90;99.90;;;;;;4943145;28;20081;-79
2023/05/21 11:47:14;;;;;;;7.95;5.55;;;23.40;99.90;;;;;;4951971;28;20133;-80
2023/05/21 11:49:40;;;;;;;8.75;5.50;;;23.20;99.90;;;;;;4960475;28;20107;-81
2023/05/21 11:52:07;;;;;;;6.55;5.55;;;23.50;99.90;;;;;;4936617;28;20044;-77
2023/05/21 11:54:50;;;;;;;7.75;6.60;;;23.50;99.90;;;;;;4935226;28;20509;-79
2023/05/21 11:57:19;;;;;;;5.15;4.60;;;23.50;99.90;;;;;;4945300;28;20043;-72
2023/05/21 11:59:52;;;;;;;6.25;4.45;;;23.80;99.90;;;;;;4952793;28;20054;-77
2023/05/21 12:02:19;;;;;;;8.38;4.65;;;23.90;99.90;;;;;;4960904;28;20478;-79
2023/05/21 12:04:49;;;;;;;6.13;4.72;;;24.00;99.90;;;;;;4968301;28;20125;-77
2023/05/21 12:07:19;;;;;;;7.00;4.53;;;23.70;99.90;;;;;;4936694;28;20078;-79
2023/05/21 12:09:49;;;;;;;5.95;4.50;;;24.00;99.90;;;;;;4968847;28;20129;-79
2023/05/21 12:12:21;;;;;;;6.03;4.43;;;24.30;99.90;;;;;;4937368;28;20078;-77
2023/05/21 12:14:48;;;;;;;6.60;4.82;;;24.70;99.90;;;;;;4969743;28;20812;-78
2023/05/21 12:17:23;;;;;;;9.18;4.70;;;24.30;99.90;;;;;;4967887;28;20074;-80
2023/05/21 12:19:55;;;;;;;10.98;5.97;;;24.10;99.90;;;;;;4936097;28;20447;-76
2023/05/21 12:22:26;;;;;;;5.72;4.40;;;24.60;99.90;;;;;;4949664;28;20047;-78
2023/05/21 12:24:57;;;;;;;5.75;4.88;;;24.40;99.90;;;;;;4936427;28;20379;-76
2023/05/21 12:27:23;;;;;;;5.32;4.60;;;24.30;99.90;;;;;;4968261;28;20046;-73
2023/05/21 12:29:53;;;;;;;7.03;4.90;;;24.50;99.90;;;;;;4964618;28;20047;-74
2023/05/21 12:32:20;;;;;;;7.65;5.25;;;24.60;99.90;;;;;;4951154;28;20074;-74
2023/05/21 12:34:52;;;;;;;5.88;4.10;;;24.40;99.90;;;;;;4964818;28;20039;-75
2023/05/21 12:37:23;;;;;;;8.85;5.38;;;24.50;99.90;;;;;;4965877;28;20073;-75
2023/05/21 12:39:53;;;;;;;6.45;4.65;;;24.10;99.90;;;;;;4951490;28;20039;-77
2023/05/21 12:42:29;;;;;;;6.88;4.50;;;24.10;99.90;;;;;;4989381;28;20453;-76
2023/05/21 12:44:56;;;;;;;9.13;4.45;;;24.50;99.90;;;;;;4948581;28;20122;-74
2023/05/21 12:47:26;;;;;;;6.18;5.00;;;24.40;99.90;;;;;;4967658;28;20129;-75
2023/05/21 12:50:02;;;;;;;7.05;4.95;;;24.30;99.90;;;;;;4967971;28;20050;-76